createdAt,value
2018-10-12T00:00:53.353Z,41.00
2018-10-12T00:03:25.119Z,50.07
2018-10-12T00:05:56.535Z,43.27
2018-10-12T00:08:28.069Z,33.03
2018-10-12T00:10:59.460Z,38.20
2018-10-12T00:13:31.259Z,23.13
2018-10-12T00:16:02.499Z,21.80
2018-10-12T00:18:34.247Z,39.00
2018-10-12T00:21:05.282Z,23.63
2018-10-12T00:23:36.806Z,41.93
2018-10-12T00:26:08.255Z,25.80
2018-10-12T00:28:39.787Z,37.03
2018-10-12T00:31:11.195Z,20.87
2018-10-12T00:33:42.679Z,29.90
2018-10-12T00:36:14.268Z,35.00
2018-10-12T00:38:45.833Z,14.30
2018-10-12T00:41:17.083Z,19.93
2018-10-12T00:43:48.607Z,23.33
2018-10-12T00:46:20.359Z,29.93
2018-10-12T00:48:52.142Z,23.23
2018-10-12T00:51:23.523Z,14.93
2018-10-12T00:53:55.691Z,23.60
2018-10-12T00:56:26.851Z,23.07
2018-10-12T00:58:58.653Z,18.73
2018-10-12T01:01:30.955Z,26.60
2018-10-12T01:04:04.679Z,24.23
2018-10-12T01:06:36.471Z,25.83
2018-10-12T01:09:09.569Z,32.10
2018-10-12T01:11:40.716Z,28.53
2018-10-12T01:14:12.127Z,21.87
2018-10-12T01:16:43.307Z,24.47
2018-10-12T01:19:15.466Z,26.97
2018-10-12T01:21:46.675Z,25.63
2018-10-12T01:24:18.715Z,30.97
2018-10-12T01:26:50.826Z,18.20
2018-10-12T01:29:22.367Z,31.90
2018-10-12T01:31:53.752Z,24.93
2018-10-12T01:34:25.367Z,19.57
2018-10-12T01:36:56.675Z,15.70
2018-10-12T01:39:28.191Z,23.10
2018-10-12T01:41:59.399Z,25.07
2018-10-12T01:44:30.794Z,15.70
2018-10-12T01:47:02.096Z,16.57
2018-10-12T01:49:33.478Z,24.50
2018-10-12T01:52:04.714Z,22.67
2018-10-12T01:54:36.419Z,21.43
2018-10-12T01:57:08.258Z,19.27
2018-10-12T01:59:39.863Z,26.63
2018-10-12T02:02:11.275Z,20.30
2018-10-12T02:04:42.883Z,25.30
2018-10-12T02:07:14.247Z,30.83
2018-10-12T02:09:45.656Z,23.90
2018-10-12T02:12:17.139Z,35.00
2018-10-12T02:14:48.754Z,25.43
2018-10-12T02:17:20.039Z,15.43
2018-10-12T02:19:51.887Z,22.90
2018-10-12T02:22:23.560Z,29.30
2018-10-12T02:24:55.801Z,28.10
2018-10-12T02:27:28.067Z,21.27
2018-10-12T02:29:59.703Z,19.70
2018-10-12T02:32:30.862Z,24.77
2018-10-12T02:35:02.267Z,24.00
2018-10-12T02:37:33.591Z,21.00
2018-10-12T02:40:05.271Z,26.20
2018-10-12T02:42:36.414Z,24.23
2018-10-12T02:45:07.636Z,20.00
2018-10-12T02:47:38.968Z,42.57
2018-10-12T02:50:10.883Z,26.47
2018-10-12T02:52:42.185Z,25.93
2018-10-12T02:55:14.253Z,20.40
2018-10-12T02:57:45.472Z,27.03
2018-10-12T03:00:17.179Z,20.73
2018-10-12T03:02:48.763Z,20.43
2018-10-12T03:05:20.678Z,29.13
2018-10-12T03:07:52.087Z,25.03
2018-10-12T03:10:23.919Z,21.73
2018-10-12T03:12:55.316Z,31.00
2018-10-12T03:15:27.814Z,32.90
2018-10-12T03:18:00.889Z,25.60
2018-10-12T03:20:32.550Z,34.10
2018-10-12T03:23:04.159Z,31.50
2018-10-12T03:25:35.794Z,31.20
2018-10-12T03:28:20.962Z,34.07
2018-10-12T03:30:52.682Z,33.00
2018-10-12T03:33:24.044Z,51.60
2018-10-12T03:35:56.642Z,41.90
2018-10-12T03:38:28.262Z,36.70
2018-10-12T03:41:00.335Z,48.97
2018-10-12T03:43:31.886Z,53.33
2018-10-12T03:46:03.902Z,45.27
2018-10-12T03:48:35.202Z,49.30
2018-10-12T03:51:07.291Z,46.57
2018-10-12T03:53:38.831Z,45.10
2018-10-12T03:56:10.621Z,25.33
2018-10-12T03:58:42.078Z,58.37
2018-10-12T04:01:13.717Z,52.37
2018-10-12T04:03:44.824Z,43.93
2018-10-12T04:06:16.661Z,44.57
2018-10-12T04:08:48.255Z,84.50
2018-10-12T04:11:19.681Z,54.77
2018-10-12T04:13:50.955Z,49.27
2018-10-12T04:16:22.889Z,42.70
2018-10-12T04:18:54.906Z,53.80
2018-10-12T04:21:26.865Z,61.00
2018-10-12T04:23:58.206Z,71.90
2018-10-12T04:26:30.093Z,65.33
2018-10-12T04:29:03.741Z,70.53
2018-10-12T04:31:35.545Z,68.97
2018-10-12T04:34:07.135Z,49.40
2018-10-12T04:36:39.102Z,82.03
2018-10-12T04:39:20.348Z,76.23
2018-10-12T04:41:52.860Z,50.63
2018-10-12T04:44:24.193Z,73.83
2018-10-12T04:46:56.894Z,65.77
2018-10-12T04:49:28.571Z,73.33
2018-10-12T04:52:02.192Z,62.63
2018-10-12T04:54:33.782Z,68.43
2018-10-12T04:57:09.420Z,83.93
2018-10-12T04:59:40.980Z,69.30
2018-10-12T05:02:12.917Z,88.63
2018-10-12T05:04:44.310Z,65.93
2018-10-12T05:07:16.017Z,85.70
2018-10-12T05:09:47.355Z,73.57
2018-10-12T05:12:19.512Z,92.27
2018-10-12T05:14:53.225Z,62.03
2018-10-12T05:17:25.044Z,67.63
2018-10-12T05:19:56.472Z,67.90
2018-10-12T05:22:28.323Z,79.83
2018-10-12T05:24:59.613Z,51.10
2018-10-12T05:27:31.540Z,66.83
2018-10-12T05:30:05.072Z,70.77
2018-10-12T05:32:36.818Z,52.10
2018-10-12T05:35:08.120Z,58.73
2018-10-12T05:37:39.868Z,52.37
2018-10-12T05:40:11.470Z,51.37
2018-10-12T05:42:43.095Z,51.20
2018-10-12T05:45:14.468Z,53.23
2018-10-12T05:47:46.183Z,61.30
2018-10-12T05:50:17.780Z,56.73
2018-10-12T05:52:50.029Z,40.70
2018-10-12T05:55:21.452Z,49.73
2018-10-12T05:57:53.349Z,43.47
2018-10-12T06:00:24.708Z,33.10
2018-10-12T06:02:56.430Z,38.73
2018-10-12T06:05:28.220Z,53.10
2018-10-12T06:07:59.910Z,46.80
2018-10-12T06:10:31.262Z,39.40
2018-10-12T06:13:04.248Z,45.97
2018-10-12T06:15:35.653Z,51.10
2018-10-12T06:18:08.174Z,36.23
2018-10-12T06:20:39.465Z,42.97
2018-10-12T06:23:11.672Z,36.93
2018-10-12T06:25:42.890Z,30.00
2018-10-12T06:28:14.585Z,37.57
2018-10-12T06:30:47.208Z,48.30
2018-10-12T06:33:19.075Z,46.93
2018-10-12T06:35:50.700Z,46.37
2018-10-12T06:38:22.173Z,40.70
2018-10-12T06:40:53.644Z,44.70
2018-10-12T06:43:25.624Z,48.23
2018-10-12T06:45:57.241Z,49.50
2018-10-12T06:48:29.478Z,44.88
2018-10-12T06:51:00.782Z,45.35
2018-10-12T06:53:32.621Z,38.60
2018-10-12T06:56:04.243Z,44.53
2018-10-12T06:58:36.107Z,41.85
2018-10-12T07:01:07.372Z,29.27
2018-10-12T07:03:39.059Z,31.12
2018-10-12T07:06:10.409Z,43.68
2018-10-12T07:08:42.124Z,44.40
2018-10-12T07:11:13.697Z,28.90
2018-10-12T07:13:46.366Z,42.30
2018-10-12T07:16:18.477Z,20.70
2018-10-12T07:18:50.920Z,37.13
2018-10-12T07:21:22.460Z,32.70
2018-10-12T07:23:55.593Z,38.67
2018-10-12T07:26:34.102Z,41.70
2018-10-12T07:29:05.526Z,30.90
2018-10-12T07:31:41.156Z,32.60
2018-10-12T07:34:13.969Z,33.50
2018-10-12T07:36:46.105Z,42.43
2018-10-12T07:39:22.019Z,37.17
2018-10-12T07:41:53.539Z,39.63
2018-10-12T07:44:25.739Z,36.03
2018-10-12T07:46:57.264Z,46.40
2018-10-12T07:49:31.027Z,32.70
2018-10-12T07:52:02.977Z,38.93
2018-10-12T07:54:34.472Z,39.10
2018-10-12T07:57:13.668Z,46.03
2018-10-12T07:59:46.118Z,27.60
2018-10-12T08:02:17.692Z,38.77
2018-10-12T08:04:49.620Z,40.37
2018-10-12T08:07:20.974Z,51.53
2018-10-12T08:09:53.171Z,40.85
2018-10-12T08:12:28.440Z,44.77
2018-10-12T08:15:00.345Z,41.95
2018-10-12T08:17:31.847Z,56.88
2018-10-12T08:20:04.035Z,38.23
2018-10-12T08:22:37.278Z,39.37
2018-10-12T08:25:09.076Z,46.70
2018-10-12T08:27:44.040Z,37.10
2018-10-12T08:30:16.268Z,40.37
2018-10-12T08:32:48.798Z,37.97
2018-10-12T08:35:20.488Z,44.37
2018-10-12T08:37:51.918Z,35.37
2018-10-12T08:40:23.573Z,40.20
2018-10-12T08:42:54.960Z,45.53
2018-10-12T08:45:27.986Z,37.83
2018-10-12T08:47:59.208Z,34.40
2018-10-12T08:50:33.730Z,29.77
2018-10-12T08:53:07.207Z,38.63
2018-10-12T08:55:39.066Z,34.80
2018-10-12T08:58:10.981Z,42.13
2018-10-12T09:00:43.228Z,34.37
2018-10-12T09:03:14.424Z,37.50
2018-10-12T09:05:49.187Z,32.90
2018-10-12T09:08:21.248Z,31.13
2018-10-12T09:10:53.268Z,44.17
2018-10-12T09:13:26.552Z,27.90
2018-10-12T09:15:58.505Z,32.83
2018-10-12T09:18:30.567Z,36.63
2018-10-12T09:21:02.705Z,33.23
2018-10-12T09:23:36.157Z,24.73
2018-10-12T09:26:09.784Z,30.53
2018-10-12T09:28:43.391Z,29.97
2018-10-12T09:31:15.473Z,32.00
2018-10-12T09:33:47.345Z,28.20
2018-10-12T09:36:19.135Z,36.00
2018-10-12T09:38:50.729Z,34.93
2018-10-12T09:41:22.388Z,30.77
2018-10-12T09:43:53.730Z,39.17
2018-10-12T09:46:25.266Z,39.47
2018-10-12T09:48:56.531Z,39.40
2018-10-12T09:51:28.474Z,36.93
2018-10-12T09:53:59.755Z,33.60
2018-10-12T09:56:31.473Z,29.43
2018-10-12T09:59:03.648Z,37.97
2018-10-12T10:01:39.996Z,30.03
2018-10-12T10:04:16.324Z,29.83
2018-10-12T10:06:48.413Z,33.80
2018-10-12T10:09:19.825Z,25.70
2018-10-12T10:11:51.657Z,36.97
2018-10-12T10:14:30.829Z,30.97
2018-10-12T10:17:02.564Z,32.23
2018-10-12T10:19:34.620Z,42.47
2018-10-12T10:22:07.281Z,32.83
2018-10-12T10:24:40.070Z,33.50
2018-10-12T10:27:12.138Z,31.87
2018-10-12T10:29:43.610Z,39.23
2018-10-12T10:32:16.161Z,35.87
2018-10-12T10:34:48.280Z,37.93
2018-10-12T10:37:19.949Z,38.63
2018-10-12T10:39:51.378Z,47.03
2018-10-12T10:42:23.328Z,27.87
2018-10-12T10:44:58.657Z,32.03
2018-10-12T10:47:33.428Z,32.10
2018-10-12T10:50:04.794Z,29.67
2018-10-12T10:52:36.530Z,26.23
2018-10-12T10:55:08.124Z,44.53
2018-10-12T10:57:41.942Z,36.40
2018-10-12T11:00:14.329Z,37.43
2018-10-12T11:02:46.772Z,32.90
2018-10-12T11:05:18.194Z,27.83
2018-10-12T11:07:50.259Z,28.97
2018-10-12T11:10:22.463Z,25.97
2018-10-12T11:12:54.217Z,24.43
2018-10-12T11:15:25.536Z,29.50
2018-10-12T11:17:57.707Z,27.80
2018-10-12T11:20:29.362Z,27.00
2018-10-12T11:23:01.025Z,29.40
2018-10-12T11:25:32.462Z,29.37
2018-10-12T11:28:04.748Z,32.90
2018-10-12T11:30:36.311Z,27.00
2018-10-12T11:33:08.333Z,32.10
2018-10-12T11:35:40.936Z,23.43
2018-10-12T11:38:13.107Z,22.70
2018-10-12T11:40:44.523Z,16.27
2018-10-12T11:43:29.904Z,19.77
2018-10-12T11:46:01.728Z,22.70
2018-10-12T11:48:33.432Z,25.73
2018-10-12T11:51:05.090Z,22.30
2018-10-12T11:53:36.631Z,30.07
2018-10-12T11:56:08.177Z,29.97
2018-10-12T11:58:39.921Z,25.07
2018-10-12T12:01:11.400Z,27.57
2018-10-12T12:03:43.045Z,26.77
2018-10-12T12:06:14.320Z,24.57
2018-10-12T12:08:46.442Z,21.30
2018-10-12T12:11:18.560Z,26.23
2018-10-12T12:13:50.309Z,26.37
2018-10-12T12:16:21.781Z,30.60
2018-10-12T12:18:53.569Z,29.70
2018-10-12T12:21:25.229Z,24.23
2018-10-12T12:23:56.877Z,30.40
2018-10-12T12:26:28.153Z,27.37
2018-10-12T12:28:59.914Z,24.20
2018-10-12T12:31:31.431Z,25.17
2018-10-12T12:34:03.184Z,22.93
2018-10-12T12:36:36.821Z,28.67
2018-10-12T12:39:09.624Z,23.27
2018-10-12T12:41:40.916Z,23.33
2018-10-12T12:44:14.529Z,18.90
2018-10-12T12:46:45.805Z,27.07
2018-10-12T12:49:17.722Z,21.00
2018-10-12T12:51:48.888Z,17.97
2018-10-12T12:54:20.729Z,17.77
2018-10-12T12:56:52.100Z,24.10
2018-10-12T12:59:23.786Z,19.47
2018-10-12T13:01:54.913Z,22.80
2018-10-12T13:04:27.053Z,25.67
2018-10-12T13:06:58.512Z,18.13
2018-10-12T13:09:30.319Z,12.57
2018-10-12T13:12:01.545Z,18.00
2018-10-12T13:14:33.025Z,17.37
2018-10-12T13:17:05.099Z,23.80
2018-10-12T13:19:36.873Z,22.23
2018-10-12T13:22:08.226Z,19.73
2018-10-12T13:24:39.642Z,25.40
2018-10-12T13:27:11.940Z,14.03
2018-10-12T13:29:43.749Z,21.77
2018-10-12T13:32:14.833Z,22.03
2018-10-12T13:39:35.397Z,19.97
2018-10-12T13:42:07.449Z,19.80
2018-10-12T13:44:38.638Z,27.13
2018-10-12T13:47:10.523Z,15.63
2018-10-12T13:49:42.197Z,24.03
2018-10-12T13:52:13.945Z,25.50
2018-10-12T13:54:45.866Z,20.37
2018-10-12T13:57:17.597Z,21.93
2018-10-12T13:59:49.179Z,22.80
2018-10-12T14:02:20.734Z,32.73
2018-10-12T14:04:52.494Z,22.93
2018-10-12T14:07:24.317Z,22.00
2018-10-12T14:09:55.769Z,21.17
2018-10-12T14:12:27.020Z,18.80
2018-10-12T14:14:58.514Z,35.23
2018-10-12T14:17:30.172Z,17.47
2018-10-12T14:20:02.280Z,18.13
2018-10-12T14:22:34.570Z,17.73
2018-10-12T14:25:05.842Z,17.07
2018-10-12T14:27:37.722Z,22.40
2018-10-12T14:30:09.171Z,20.53
2018-10-12T14:32:40.970Z,18.53
2018-10-12T14:35:12.585Z,21.37
2018-10-12T14:37:44.201Z,11.83
2018-10-12T14:40:17.213Z,24.00
2018-10-12T14:42:48.818Z,20.03
2018-10-12T14:45:20.233Z,17.90
2018-10-12T14:47:52.114Z,20.00
2018-10-12T14:50:23.681Z,22.37
2018-10-12T14:52:55.428Z,18.20
2018-10-12T14:55:26.754Z,25.03
2018-10-12T14:57:58.229Z,15.70
2018-10-12T15:00:29.734Z,18.40
2018-10-12T15:03:01.835Z,24.23
2018-10-12T15:05:33.401Z,24.57
2018-10-12T15:08:05.469Z,16.43
2018-10-12T15:10:36.845Z,13.83
2018-10-12T15:13:08.818Z,21.33
2018-10-12T15:15:40.274Z,13.53
2018-10-12T15:18:11.974Z,21.23
2018-10-12T15:20:43.529Z,24.40
2018-10-12T15:23:15.368Z,19.43
2018-10-12T15:25:46.750Z,19.57
2018-10-12T15:28:18.373Z,16.00
2018-10-12T15:30:49.858Z,18.80
2018-10-12T15:33:21.561Z,18.63
2018-10-12T15:35:52.859Z,19.00
2018-10-12T15:38:24.571Z,26.70
2018-10-12T15:40:57.853Z,16.83
2018-10-12T15:43:30.014Z,21.70
2018-10-12T15:46:02.115Z,28.07
2018-10-12T15:48:33.677Z,23.70
2018-10-12T15:51:04.996Z,16.77
2018-10-12T15:53:36.870Z,15.37
2018-10-12T15:56:08.395Z,21.57
2018-10-12T15:58:41.154Z,18.10
2018-10-12T16:01:12.543Z,18.13
2018-10-12T16:03:44.805Z,23.10
2018-10-12T16:06:16.361Z,11.60
2018-10-12T16:08:48.145Z,23.87
2018-10-12T16:11:19.953Z,16.57
2018-10-12T16:13:51.766Z,18.33
2018-10-12T16:16:23.027Z,25.10
2018-10-12T16:18:54.706Z,19.40
2018-10-12T16:21:26.594Z,33.33
2018-10-12T16:23:58.350Z,26.43
2018-10-12T16:26:29.734Z,21.47
2018-10-12T16:29:01.541Z,24.73
2018-10-12T16:31:33.185Z,24.87
2018-10-12T16:34:05.247Z,31.80
2018-10-12T16:36:37.276Z,23.93
2018-10-12T16:39:10.339Z,24.57
2018-10-12T16:41:43.178Z,21.60
2018-10-12T16:44:14.845Z,24.77
2018-10-12T16:46:46.145Z,22.47
2018-10-12T16:49:17.706Z,25.67
2018-10-12T16:51:49.098Z,19.37
2018-10-12T16:54:20.516Z,18.23
2018-10-12T16:56:52.046Z,30.03
2018-10-12T16:59:23.974Z,23.03
2018-10-12T17:01:55.174Z,23.33
2018-10-12T17:04:27.907Z,33.23
2018-10-12T17:06:59.275Z,24.97
2018-10-12T17:09:31.085Z,31.10
2018-10-12T17:12:03.662Z,30.30
2018-10-12T17:14:35.426Z,35.53
2018-10-12T17:17:06.927Z,21.83
2018-10-12T17:19:38.693Z,25.47
2018-10-12T17:22:10.135Z,23.93
2018-10-12T17:24:41.870Z,30.20
2018-10-12T17:27:13.300Z,26.27
2018-10-12T17:29:44.993Z,23.80
2018-10-12T17:32:16.661Z,34.23
2018-10-12T17:34:48.697Z,19.53
2018-10-12T17:37:19.974Z,24.10
2018-10-12T17:39:51.574Z,24.40
2018-10-12T17:42:24.312Z,27.00
2018-10-12T17:44:56.166Z,33.93
2018-10-12T17:47:27.435Z,23.43
2018-10-12T17:49:59.114Z,24.27
2018-10-12T17:52:30.127Z,24.30
2018-10-12T17:55:03.307Z,17.47
2018-10-12T17:57:36.912Z,22.37
2018-10-12T18:00:09.882Z,21.97
2018-10-12T18:02:41.357Z,24.13
2018-10-12T18:05:12.667Z,15.90
2018-10-12T18:07:44.161Z,28.67
2018-10-12T18:10:15.534Z,21.77
2018-10-12T18:12:47.002Z,18.90
2018-10-12T18:15:18.530Z,18.70
2018-10-12T18:17:50.065Z,17.17
2018-10-12T18:20:21.746Z,28.20
2018-10-12T18:22:53.153Z,23.27
2018-10-12T18:25:24.858Z,23.40
2018-10-12T18:27:56.492Z,18.23
2018-10-12T18:30:28.030Z,20.17
2018-10-12T18:32:59.489Z,29.63
2018-10-12T18:35:31.058Z,21.77
2018-10-12T18:38:02.430Z,23.67
2018-10-12T18:40:34.369Z,25.40
2018-10-12T18:43:06.276Z,16.43
2018-10-12T18:45:37.851Z,20.80
2018-10-12T18:48:09.148Z,24.10
2018-10-12T18:50:40.779Z,16.00
2018-10-12T18:53:12.238Z,23.90
2018-10-12T18:55:43.992Z,28.40
2018-10-12T18:58:15.368Z,15.20
2018-10-12T19:00:46.969Z,21.10
2018-10-12T19:03:18.550Z,24.00
2018-10-12T19:05:50.489Z,23.60
2018-10-12T19:08:21.770Z,22.93
2018-10-12T19:10:53.439Z,17.93
2018-10-12T19:13:24.779Z,13.37
2018-10-12T19:15:56.390Z,15.07
2018-10-12T19:18:29.841Z,15.80
2018-10-12T19:21:01.500Z,15.00
2018-10-12T19:23:37.181Z,23.57
2018-10-12T19:26:10.820Z,12.10
2018-10-12T19:28:42.403Z,11.77
2018-10-12T19:31:14.158Z,12.93
2018-10-12T19:33:45.518Z,10.93
2018-10-12T19:36:17.414Z,16.07
2018-10-12T19:38:48.602Z,12.53
2018-10-12T19:41:20.313Z,15.27
2018-10-12T19:43:53.371Z,14.53
2018-10-12T19:46:25.847Z,17.10
2018-10-12T19:48:57.186Z,10.13
2018-10-12T19:51:28.929Z,16.43
2018-10-12T19:54:00.105Z,14.73
2018-10-12T19:56:31.965Z,11.93
2018-10-12T19:59:03.471Z,17.53
2018-10-12T20:01:35.243Z,13.30
2018-10-12T20:04:08.398Z,12.93
2018-10-12T20:06:39.997Z,13.67
2018-10-12T20:09:12.717Z,14.10
2018-10-12T20:11:44.346Z,15.00
2018-10-12T20:14:15.812Z,16.83
2018-10-12T20:16:47.679Z,12.80
2018-10-12T20:19:19.017Z,11.37
2018-10-12T20:21:50.576Z,20.93
2018-10-12T20:24:22.647Z,13.43
2018-10-12T20:26:54.826Z,10.80
2018-10-12T20:29:26.155Z,16.73
2018-10-12T20:31:57.945Z,16.13
2018-10-12T20:34:29.186Z,21.73
2018-10-12T20:37:01.101Z,16.70
2018-10-12T20:39:32.685Z,15.63
2018-10-12T20:42:04.246Z,23.67
2018-10-12T20:44:36.204Z,17.30
2018-10-12T20:47:08.579Z,16.33
2018-10-12T20:49:39.841Z,16.33
2018-10-12T20:52:11.798Z,12.50
2018-10-12T20:54:43.433Z,10.90
2018-10-12T20:57:15.241Z,15.93
2018-10-12T20:59:46.571Z,13.80
2018-10-12T21:02:18.422Z,19.47
2018-10-12T21:04:49.670Z,15.17
2018-10-12T21:07:21.489Z,15.40
2018-10-12T21:09:53.014Z,12.57
2018-10-12T21:12:24.496Z,15.03
2018-10-12T21:14:55.870Z,16.70
2018-10-12T21:17:27.717Z,13.93
2018-10-12T21:19:58.963Z,22.07
2018-10-12T21:22:30.805Z,11.97
2018-10-12T21:25:02.262Z,15.23
2018-10-12T21:27:33.913Z,11.90
2018-10-12T21:30:05.297Z,15.93
2018-10-12T21:32:37.113Z,14.13
2018-10-12T21:35:08.383Z,20.27
2018-10-12T21:37:40.331Z,18.73
2018-10-12T21:40:12.189Z,17.03
2018-10-12T21:42:43.866Z,17.23
2018-10-12T21:45:16.185Z,22.00
2018-10-12T21:47:47.752Z,19.37
2018-10-12T21:50:19.105Z,14.63
2018-10-12T21:52:50.931Z,20.33
2018-10-12T21:55:22.229Z,20.60
2018-10-12T21:57:53.911Z,16.93
2018-10-12T22:00:25.524Z,19.13
2018-10-12T22:02:57.178Z,16.50
2018-10-12T22:05:29.305Z,20.23
2018-10-12T22:08:02.945Z,14.93
2018-10-12T22:10:34.374Z,18.93
2018-10-12T22:13:06.349Z,17.07
2018-10-12T22:15:37.909Z,20.70
2018-10-12T22:18:09.505Z,18.00
2018-10-12T22:20:40.998Z,16.60
2018-10-12T22:23:12.759Z,19.87
2018-10-12T22:25:44.233Z,12.43
2018-10-12T22:28:16.077Z,21.63
2018-10-12T22:30:47.929Z,10.50
2018-10-12T22:33:19.429Z,24.57
2018-10-12T22:35:50.956Z,15.00
2018-10-12T22:38:22.857Z,20.03
2018-10-12T22:40:54.073Z,14.23
2018-10-12T22:43:25.879Z,17.80
2018-10-12T22:45:58.002Z,20.90
2018-10-12T22:48:29.821Z,22.43
2018-10-12T22:51:01.137Z,25.37
2018-10-12T22:53:32.634Z,27.87
2018-10-12T22:56:04.119Z,25.57
2018-10-12T22:58:36.161Z,26.03
2018-10-12T23:01:07.941Z,23.17
2018-10-12T23:03:39.642Z,18.60
2018-10-12T23:06:11.162Z,23.77
2018-10-12T23:08:42.765Z,21.80
2018-10-12T23:11:14.157Z,19.00
2018-10-12T23:13:45.938Z,16.70
2018-10-12T23:16:17.300Z,16.40
2018-10-12T23:18:49.287Z,15.57
2018-10-12T23:21:20.678Z,21.90
2018-10-12T23:23:52.270Z,20.40
2018-10-12T23:26:23.700Z,17.50
2018-10-12T23:28:55.718Z,24.10
2018-10-12T23:31:26.863Z,20.70
2018-10-12T23:34:10.336Z,25.77
2018-10-12T23:36:41.566Z,12.63
2018-10-12T23:39:13.208Z,25.43
2018-10-12T23:41:44.350Z,22.33
2018-10-12T23:44:15.961Z,28.97
2018-10-12T23:46:48.922Z,19.23
2018-10-12T23:49:20.830Z,26.13
2018-10-12T23:51:52.254Z,23.73
2018-10-12T23:54:23.645Z,20.70
2018-10-12T23:56:55.137Z,18.13
2018-10-12T23:59:27.166Z,14.77
